Time;durP1;ratioP1;P1;durP2;ratioP2;P2;SDS_P1;SDS_P2;PMS_P1;PMS_P2;Temp;Humidity;BMP_temperature;BMP_pressure;BME280_temperature;BME280_humidity;BME280_pressure;Samples;Min_cycle;Max_cycle;Signal;HPM_P1;HPM_P2
2022/05/14 00:00:55;;;;;;;;;;;;;;;22.25;45.28;101313.44;5117816;27;4135;-64
2022/05/14 00:03:22;;;;;;;;;;;;;;;22.24;45.41;101318.47;5117939;27;4036;-64
2022/05/14 00:05:48;;;;;;;;;;;;;;;22.24;45.25;101321.38;5115638;27;4222;-64
2022/05/14 00:08:15;;;;;;;;;;;;;;;22.23;45.37;101319.13;5115924;27;4200;-63
2022/05/14 00:13:27;;;;;;;;;;;;;;;22.22;45.23;101308.97;5115643;27;5595;-64
2022/05/14 00:15:53;;;;;;;;;;;;;;;22.23;45.50;101316.25;5116282;27;4216;-64
2022/05/14 00:18:21;;;;;;;;;;;;;;;22.22;45.26;101311.84;5116644;27;4009;-63
2022/05/14 00:20:47;;;;;;;;;;;;;;;22.21;45.31;101310.34;5117729;28;4194;-64
2022/05/14 00:23:14;;;;;;;;;;;;;;;22.21;45.49;101316.13;5114892;27;4223;-64
2022/05/14 00:25:41;;;;;;;;;;;;;;;22.21;45.37;101307.47;5117665;28;4034;-64
2022/05/14 00:28:08;;;;;;;;;;;;;;;22.18;45.32;101304.47;5097286;27;4107;-64
2022/05/14 00:30:35;;;;;;;;;;;;;;;22.18;45.35;101304.47;5115098;27;4117;-64
2022/05/14 00:33:01;;;;;;;;;;;;;;;22.20;45.28;101303.09;5115435;28;4121;-64
2022/05/14 00:35:27;;;;;;;;;;;;;;;22.18;45.40;101307.38;5112898;28;4416;-64
2022/05/14 00:37:54;;;;;;;;;;;;;;;22.17;45.46;101300.13;5117484;27;4232;-64
2022/05/14 00:40:26;;;;;;;;;;;;;;;22.17;45.20;101311.66;5114252;27;4283;-64
2022/05/14 00:42:52;;;;;;;;;;;;;;;22.17;45.35;101311.66;5113498;27;4229;-64
2022/05/14 00:45:19;;;;;;;;;;;;;;;22.17;45.58;101310.88;5115302;27;4416;-64
2022/05/14 00:47:46;;;;;;;;;;;;;;;22.16;45.47;101313.03;5097896;28;4369;-64
2022/05/14 00:50:17;;;;;;;;;;;;;;;22.16;45.54;101318.81;5087841;27;4166;-65
2022/05/14 00:52:44;;;;;;;;;;;;;;;22.16;45.38;101320.94;5104656;27;4004;-64
2022/05/14 00:55:11;;;;;;;;;;;;;;;22.16;45.31;101315.91;5104096;27;4029;-65
2022/05/14 00:57:39;;;;;;;;;;;;;;;22.15;45.48;101320.22;5117933;27;4071;-64
2022/05/14 01:00:06;;;;;;;;;;;;;;;22.15;45.68;101319.44;5117288;28;4048;-64
2022/05/14 01:02:33;;;;;;;;;;;;;;;22.15;45.41;101316.56;5115212;27;4031;-64
2022/05/14 01:05:00;;;;;;;;;;;;;;;22.15;45.44;101313.69;5117481;27;4026;-64
2022/05/14 01:07:27;;;;;;;;;;;;;;;22.14;45.43;101315.81;5098926;28;4127;-64
2022/05/14 01:09:55;;;;;;;;;;;;;;;22.14;45.53;101343.94;5082168;28;4110;-64
2022/05/14 01:12:22;;;;;;;;;;;;;;;22.13;45.71;101320.13;5095752;28;4108;-64
2022/05/14 01:14:49;;;;;;;;;;;;;;;22.13;45.74;101328.03;5103255;28;4065;-64
2022/05/14 01:17:15;;;;;;;;;;;;;;;22.13;45.52;101323.00;5111860;27;4314;-64
2022/05/14 01:19:41;;;;;;;;;;;;;;;22.12;45.63;101324.38;5116103;28;4094;-64
2022/05/14 01:22:13;;;;;;;;;;;;;;;22.12;45.72;101321.50;5114769;27;4162;-64
2022/05/14 01:27:40;;;;;;;;;;;;;;;22.11;45.79;101302.72;5098185;27;6821;-64
2022/05/14 01:30:07;;;;;;;;;;;;;;;22.11;45.61;101291.19;5115250;27;5502;-64
2022/05/14 01:32:33;;;;;;;;;;;;;;;22.10;45.52;101306.97;5103735;27;4171;-64
2022/05/14 01:35:00;;;;;;;;;;;;;;;22.11;45.71;101325.78;5120166;27;5220;-64
2022/05/14 01:37:28;;;;;;;;;;;;;;;22.11;45.45;101308.47;5098313;27;4202;-64
2022/05/14 01:39:55;;;;;;;;;;;;;;;22.10;45.57;101312.75;5101220;27;4070;-64
2022/05/14 01:42:21;;;;;;;;;;;;;;;22.11;45.66;101310.63;5102148;27;4255;-64
2022/05/14 01:44:48;;;;;;;;;;;;;;;22.10;45.73;101306.25;5117152;27;4113;-64
2022/05/14 01:47:14;;;;;;;;;;;;;;;22.10;45.62;101318.50;5098104;27;4187;-63
2022/05/14 01:49:40;;;;;;;;;;;;;;;22.09;45.81;101317.03;5101498;27;4332;-64
2022/05/14 01:52:07;;;;;;;;;;;;;;;22.09;45.75;101331.47;5096626;27;4178;-63
2022/05/14 01:54:34;;;;;;;;;;;;;;;22.09;45.64;101322.81;5098218;27;4169;-64
2022/05/14 01:57:00;;;;;;;;;;;;;;;22.09;45.51;101314.16;5116954;27;4434;-64
2022/05/14 01:59:27;;;;;;;;;;;;;;;22.09;45.58;101316.31;5099102;27;4194;-63
2022/05/14 02:01:54;;;;;;;;;;;;;;;22.09;45.79;101324.94;5101756;27;5267;-64
2022/05/14 02:04:20;;;;;;;;;;;;;;;22.08;45.61;101315.56;5098205;27;4391;-64
2022/05/14 02:06:47;;;;;;;;;;;;;;;22.08;45.66;101309.78;5111271;27;5679;-64
2022/05/14 02:09:13;;;;;;;;;;;;;;;22.07;45.51;101314.06;5118038;27;4210;-64
2022/05/14 02:11:43;;;;;;;;;;;;;;;22.07;45.71;101316.19;5098791;27;5323;-64
2022/05/14 02:14:18;;;;;;;;;;;;;;;22.07;45.74;101313.31;5097976;27;4240;-65
2022/05/14 02:16:44;;;;;;;;;;;;;;;22.07;45.83;101308.28;5106480;27;4325;-64
2022/05/14 02:19:11;;;;;;;;;;;;;;;22.07;45.74;101314.06;5099175;27;4255;-64
2022/05/14 02:21:37;;;;;;;;;;;;;;;22.06;45.79;101318.34;5100827;27;4485;-64
2022/05/14 02:24:04;;;;;;;;;;;;;;;22.06;45.86;101324.13;5107568;27;4338;-64
2022/05/14 02:26:31;;;;;;;;;;;;;;;22.07;45.59;101324.84;5101170;27;4205;-64
2022/05/14 02:28:57;;;;;;;;;;;;;;;22.06;45.83;101318.34;5098616;27;4176;-64
2022/05/14 02:31:24;;;;;;;;;;;;;;;22.05;45.83;101319.72;5106060;27;5386;-64
2022/05/14 02:33:50;;;;;;;;;;;;;;;22.05;45.69;101325.50;5116244;27;5272;-63
2022/05/14 02:36:18;;;;;;;;;;;;;;;22.05;45.75;101319.00;5099327;27;4150;-64
2022/05/14 02:38:44;;;;;;;;;;;;;;;22.05;45.54;101319.72;5117923;27;4037;-64
2022/05/14 02:41:13;;;;;;;;;;;;;;;22.07;45.51;101322.72;5100245;27;4143;-64
2022/05/14 02:43:40;;;;;;;;;;;;;;;22.08;45.36;101324.22;5096410;27;4254;-64
2022/05/14 02:46:07;;;;;;;;;;;;;;;22.08;45.57;101327.09;5115825;27;4208;-64
2022/05/14 02:48:33;;;;;;;;;;;;;;;22.08;45.62;101327.09;5106321;27;4140;-64
2022/05/14 02:51:00;;;;;;;;;;;;;;;22.08;45.44;101318.44;5106655;27;4457;-64
2022/05/14 02:53:27;;;;;;;;;;;;;;;22.08;45.52;101317.69;5106093;27;4150;-64
2022/05/14 02:55:53;;;;;;;;;;;;;;;22.09;45.57;101328.56;5116266;27;4179;-64
2022/05/14 03:01:05;;;;;;;;;;;;;;;22.08;45.26;101327.09;5118676;27;4559;-64
2022/05/14 03:03:32;;;;;;;;;;;;;;;22.09;45.25;101327.84;5113345;27;4502;-64
2022/05/14 03:05:58;;;;;;;;;;;;;;;22.09;45.28;101328.56;5098881;27;4224;-64
2022/05/14 03:08:25;;;;;;;;;;;;;;;22.09;45.51;101331.47;5116621;27;4371;-64
2022/05/14 03:10:51;;;;;;;;;;;;;;;22.09;45.50;101339.38;5117548;27;5306;-64
2022/05/14 03:13:18;;;;;;;;;;;;;;;22.08;45.42;101338.63;5114018;27;5217;-64
2022/05/14 03:15:45;;;;;;;;;;;;;;;22.08;45.37;101338.63;5117183;27;4064;-64
2022/05/14 03:18:11;;;;;;;;;;;;;;;22.09;45.49;101330.72;5117577;27;4318;-67
2022/05/14 03:20:37;;;;;;;;;;;;;;;22.09;45.43;101327.84;5117603;27;4084;-64
2022/05/14 03:23:04;;;;;;;;;;;;;;;22.09;45.70;101328.56;5115749;27;4492;-64
2022/05/14 03:25:31;;;;;;;;;;;;;;;22.08;45.77;101327.09;5115467;27;5431;-64
2022/05/14 03:27:57;;;;;;;;;;;;;;;22.08;45.63;101337.88;5114642;27;4057;-64
2022/05/14 03:30:24;;;;;;;;;;;;;;;22.08;45.85;101329.22;5116178;27;4175;-64
2022/05/14 03:32:50;;;;;;;;;;;;;;;22.08;45.80;101320.56;5118241;27;4276;-65
2022/05/14 03:35:17;;;;;;;;;;;;;;;22.08;45.73;101329.97;5102047;27;4313;-64
2022/05/14 03:37:45;;;;;;;;;;;;;;;22.07;45.63;101331.34;5116376;27;4307;-64
2022/05/14 03:40:11;;;;;;;;;;;;;;;22.07;45.80;101333.50;5118013;27;5196;-66
2022/05/14 03:42:38;;;;;;;;;;;;;;;22.07;45.71;101337.13;5099393;27;5303;-64
2022/05/14 03:45:05;;;;;;;;;;;;;;;22.05;45.77;101339.91;5093491;27;4279;-64
2022/05/14 03:47:31;;;;;;;;;;;;;;;22.06;45.95;101329.13;5105080;27;4529;-64
2022/05/14 03:49:58;;;;;;;;;;;;;;;22.05;46.02;101328.38;5113048;27;4202;-64
2022/05/14 03:52:25;;;;;;;;;;;;;;;22.05;46.00;101322.63;5115876;27;4201;-64
2022/05/14 03:54:51;;;;;;;;;;;;;;;22.04;46.09;101320.41;5099600;27;5423;-63
2022/05/14 03:57:18;;;;;;;;;;;;;;;22.05;45.80;101334.16;5097700;28;4207;-64
2022/05/14 03:59:45;;;;;;;;;;;;;;;22.03;45.81;101331.16;5098273;27;4217;-64
2022/05/14 04:02:11;;;;;;;;;;;;;;;22.03;45.98;101318.88;5117837;27;4163;-64
2022/05/14 04:04:37;;;;;;;;;;;;;;;22.01;46.04;101328.19;5103632;27;4228;-63
2022/05/14 04:07:04;;;;;;;;;;;;;;;22.03;46.02;101330.44;5117305;27;4770;-63
2022/05/14 04:09:30;;;;;;;;;;;;;;;22.02;45.99;101332.56;5115720;27;4159;-63
2022/05/14 04:11:57;;;;;;;;;;;;;;;22.01;45.92;101328.19;5095604;28;4495;-64
2022/05/14 04:14:23;;;;;;;;;;;;;;;22.02;46.10;101329.69;5113093;28;4149;-64
2022/05/14 04:16:53;;;;;;;;;;;;;;;22.02;45.99;101321.03;5098236;28;5542;-63
2022/05/14 04:19:20;;;;;;;;;;;;;;;22.00;45.96;101326.69;5113808;27;4208;-64
2022/05/14 04:21:47;;;;;;;;;;;;;;;22.01;46.03;101333.94;5096901;28;6320;-64
2022/05/14 04:24:14;;;;;;;;;;;;;;;21.99;45.86;101331.00;5117536;27;5333;-63
2022/05/14 04:26:41;;;;;;;;;;;;;;;22.00;46.02;101320.19;5113238;28;4482;-64
2022/05/14 04:29:08;;;;;;;;;;;;;;;21.99;46.02;101319.47;5103831;27;4104;-63
2022/05/14 04:31:35;;;;;;;;;;;;;;;21.98;46.03;101326.59;5116243;27;5309;-64
2022/05/14 04:34:01;;;;;;;;;;;;;;;21.99;45.99;101331.00;5114142;27;4162;-64
2022/05/14 04:36:28;;;;;;;;;;;;;;;21.98;46.05;101335.25;5110345;28;4029;-64
2022/05/14 04:38:54;;;;;;;;;;;;;;;21.99;45.97;101330.22;5107460;28;4204;-64
2022/05/14 04:41:21;;;;;;;;;;;;;;;21.98;46.10;101334.53;5105131;28;4189;-64
2022/05/14 04:43:49;;;;;;;;;;;;;;;21.99;45.90;101333.13;5116746;28;5458;-64
2022/05/14 04:46:16;;;;;;;;;;;;;;;21.98;45.76;101337.41;5096882;28;4190;-64
2022/05/14 04:48:43;;;;;;;;;;;;;;;21.98;45.99;101340.28;5103172;27;5379;-64
2022/05/14 04:51:09;;;;;;;;;;;;;;;21.96;45.81;101344.53;5096517;27;4144;-63
2022/05/14 04:53:35;;;;;;;;;;;;;;;21.96;45.86;101349.56;5103985;28;4481;-64
2022/05/14 04:56:02;;;;;;;;;;;;;;;21.97;45.76;101342.44;5098060;27;4203;-64
2022/05/14 04:58:28;;;;;;;;;;;;;;;21.96;45.87;101349.56;5098342;28;5369;-64
2022/05/14 05:00:55;;;;;;;;;;;;;;;21.96;45.80;101349.56;5101079;27;4112;-64
2022/05/14 05:03:24;;;;;;;;;;;;;;;21.95;45.67;101348.84;5109320;27;5267;-64
2022/05/14 05:05:55;;;;;;;;;;;;;;;21.95;45.84;101350.97;5102681;27;4173;-64
2022/05/14 05:08:22;;;;;;;;;;;;;;;21.95;46.04;101354.59;5101630;27;4328;-64
2022/05/14 05:10:48;;;;;;;;;;;;;;;21.94;45.98;101364.66;5118313;27;4114;-63
2022/05/14 05:13:16;;;;;;;;;;;;;;;21.93;45.97;101357.38;5119215;27;4184;-63
2022/05/14 05:15:42;;;;;;;;;;;;;;;21.96;46.00;101366.88;5117508;27;4162;-63
2022/05/14 05:18:08;;;;;;;;;;;;;;;21.96;46.05;101361.13;5117724;27;4063;-63
2022/05/14 05:20:35;;;;;;;;;;;;;;;21.95;45.77;101376.94;5118539;27;4136;-62
2022/05/14 05:23:02;;;;;;;;;;;;;;;21.94;45.80;101379.09;5119354;27;5195;-62
2022/05/14 05:25:29;;;;;;;;;;;;;;;21.94;46.07;101378.31;5120168;27;4190;-62
2022/05/14 05:27:55;;;;;;;;;;;;;;;21.93;46.03;101382.59;5119144;27;5340;-62
2022/05/14 05:30:22;;;;;;;;;;;;;;;21.92;45.86;101378.97;5116891;27;4055;-63
2022/05/14 05:32:48;;;;;;;;;;;;;;;21.93;45.83;101373.94;5120058;27;4068;-63
2022/05/14 05:35:14;;;;;;;;;;;;;;;21.92;45.88;101372.44;5118594;27;4019;-63
2022/05/14 05:37:44;;;;;;;;;;;;;;;21.92;45.89;101372.44;5119132;27;4209;-62
2022/05/14 05:40:11;;;;;;;;;;;;;;;21.92;46.00;101367.44;5118109;27;5242;-62
2022/05/14 05:42:37;;;;;;;;;;;;;;;21.92;46.05;101378.22;5118369;27;4299;-63
2022/05/14 05:45:04;;;;;;;;;;;;;;;21.93;46.05;101373.94;5101232;27;5000;-63
2022/05/14 05:47:30;;;;;;;;;;;;;;;21.93;46.09;101373.94;5117905;27;4280;-62
2022/05/14 05:49:57;;;;;;;;;;;;;;;21.92;46.01;101381.88;5120233;27;4366;-63
2022/05/14 05:52:25;;;;;;;;;;;;;;;21.94;45.83;101378.31;5119437;27;4169;-63
2022/05/14 05:57:38;;;;;;;;;;;;;;;21.91;45.81;101377.47;5120982;27;4094;-63
2022/05/14 06:00:05;;;;;;;;;;;;;;;21.92;45.81;101378.97;5119766;27;4320;-62
2022/05/14 06:02:36;;;;;;;;;;;;;;;21.92;46.09;101372.44;5116861;27;4269;-62
2022/05/14 06:05:04;;;;;;;;;;;;;;;21.92;45.78;101378.22;5120877;27;4190;-65
2022/05/14 06:07:30;;;;;;;;;;;;;;;21.96;45.87;101375.53;5118549;27;4084;-67
2022/05/14 06:09:56;;;;;;;;;;;;;;;21.96;46.01;101373.38;5115986;27;4334;-68
2022/05/14 06:12:23;;;;;;;;;;;;;;;21.98;45.75;101384.28;5115776;27;4124;-68
2022/05/14 06:14:50;;;;;;;;;;;;;;;21.98;45.94;101398.69;5120062;27;4299;-68
2022/05/14 06:17:17;;;;;;;;;;;;;;;21.97;46.03;101400.09;5118967;27;4664;-67
2022/05/14 06:19:43;;;;;;;;;;;;;;;21.98;45.94;101403.72;5120369;27;5038;-67
2022/05/14 06:22:10;;;;;;;;;;;;;;;21.97;45.82;101403.00;5119724;27;4126;-68
2022/05/14 06:24:36;;;;;;;;;;;;;;;21.96;45.83;101405.09;5116905;27;4147;-68
2022/05/14 06:27:03;;;;;;;;;;;;;;;21.97;45.99;101403.00;5119463;27;4195;-67
2022/05/14 06:29:31;;;;;;;;;;;;;;;21.96;45.73;101408.00;5096620;27;4337;-67
2022/05/14 06:31:58;;;;;;;;;;;;;;;21.99;45.77;101402.31;5108956;27;4097;-66
2022/05/14 06:34:25;;;;;;;;;;;;;;;21.99;45.77;101400.19;5114147;27;4264;-68
2022/05/14 06:36:51;;;;;;;;;;;;;;;21.95;46.11;101402.88;5117843;27;4246;-65
2022/05/14 06:39:18;;;;;;;;;;;;;;;22.01;45.77;101403.16;5110929;27;4716;-69
2022/05/14 06:41:44;;;;;;;;;;;;;;;22.00;45.97;101398.81;5113752;27;4401;-68
2022/05/14 06:44:10;;;;;;;;;;;;;;;22.02;45.67;101404.66;5119747;27;4243;-69
2022/05/14 06:46:37;;;;;;;;;;;;;;;22.02;45.85;101398.16;5116506;27;4162;-69
2022/05/14 06:49:03;;;;;;;;;;;;;;;22.02;45.81;101404.66;5114978;27;4172;-69
2022/05/14 06:51:30;;;;;;;;;;;;;;;22.03;45.89;101400.38;5118845;27;4089;-69
2022/05/14 06:53:59;;;;;;;;;;;;;;;22.04;46.22;101399.00;5119169;27;4048;-68
2022/05/14 06:56:26;;;;;;;;;;;;;;;22.04;46.06;101406.91;5118325;27;4207;-68
2022/05/14 06:58:53;;;;;;;;;;;;;;;22.03;46.49;101414.78;5106410;27;4150;-67
2022/05/14 07:01:19;;;;;;;;;;;;;;;22.04;46.32;101413.41;5116940;27;4256;-68
2022/05/14 07:06:43;;;;;;;;;;;;;;;22.04;46.83;101409.81;5116347;27;5125;-69
2022/05/14 07:09:11;;;;;;;;;;;;;;;22.05;46.58;101417.78;5117154;27;4174;-68
2022/05/14 07:11:38;;;;;;;;;;;;;;;22.05;46.85;101405.50;5115706;27;4384;-68
2022/05/14 07:14:05;;;;;;;;;;;;;;;22.06;46.70;101409.88;5119281;27;4171;-68
2022/05/14 07:16:31;;;;;;;;;;;;;;;22.04;46.75;101407.66;5116079;27;4288;-68
2022/05/14 07:18:57;;;;;;;;;;;;;;;22.05;47.08;101412.00;5117065;27;4252;-68
2022/05/14 07:21:28;;;;;;;;;;;;;;;22.03;47.12;101414.78;5114182;27;4815;-69
2022/05/14 07:23:55;;;;;;;;;;;;;;;22.03;47.55;101411.91;5111826;27;4068;-69
2022/05/14 07:26:21;;;;;;;;;;;;;;;22.04;47.10;101412.69;5105258;27;5424;-70
2022/05/14 07:28:47;;;;;;;;;;;;;;;22.04;47.26;101416.31;5109750;27;4183;-69
2022/05/14 07:31:14;;;;;;;;;;;;;;;22.06;47.19;101412.75;5114757;27;4528;-68
2022/05/14 07:33:40;;;;;;;;;;;;;;;22.05;47.32;101420.66;5115989;27;4161;-69
2022/05/14 07:36:09;;;;;;;;;;;;;;;22.06;47.28;101416.41;5116557;27;4199;-69
2022/05/14 07:38:35;;;;;;;;;;;;;;;22.05;47.15;101414.91;5105126;27;4622;-68
2022/05/14 07:41:02;;;;;;;;;;;;;;;22.06;47.31;101410.63;5097999;27;4597;-69
2022/05/14 07:43:30;;;;;;;;;;;;;;;22.06;47.20;101410.63;5111897;27;4593;-69
2022/05/14 07:45:59;;;;;;;;;;;;;;;22.05;47.21;101397.59;5108774;27;4492;-68
2022/05/14 07:48:27;;;;;;;;;;;;;;;22.12;47.02;101405.16;5115187;27;4569;-68
2022/05/14 07:50:54;;;;;;;;;;;;;;;22.08;47.02;101407.84;5114929;27;4260;-68
2022/05/14 07:53:20;;;;;;;;;;;;;;;22.06;47.28;101407.75;5099034;27;5447;-68
2022/05/14 07:55:47;;;;;;;;;;;;;;;22.02;47.33;101403.94;5078208;27;5370;-68
2022/05/14 07:58:13;;;;;;;;;;;;;;;22.04;47.38;101398.25;5110429;27;4236;-69
2022/05/14 08:00:41;;;;;;;;;;;;;;;22.05;47.19;101397.59;5111953;27;4141;-70
2022/05/14 08:03:10;;;;;;;;;;;;;;;22.04;47.12;101390.34;5115304;27;4253;-70
2022/05/14 08:05:37;;;;;;;;;;;;;;;22.05;47.34;101403.38;5115248;27;5229;-70
2022/05/14 08:08:04;;;;;;;;;;;;;;;22.07;47.50;101405.59;5117768;27;4171;-70
2022/05/14 08:10:31;;;;;;;;;;;;;;;22.06;47.47;101399.09;5115859;27;4024;-70
2022/05/14 08:12:58;;;;;;;;;;;;;;;22.06;47.45;101402.00;5115864;27;4231;-70
2022/05/14 08:15:24;;;;;;;;;;;;;;;22.06;47.61;101399.09;5114140;27;4157;-69
2022/05/14 08:17:51;;;;;;;;;;;;;;;22.05;47.69;101394.72;5108741;27;4343;-71
2022/05/14 08:20:17;;;;;;;;;;;;;;;22.07;47.59;101408.50;5113684;27;4992;-70
2022/05/14 08:25:28;;;;;;;;;;;;;;;22.09;47.81;101399.94;5116771;27;4522;-72
2022/05/14 08:27:54;;;;;;;;;;;;;;;22.08;48.13;101407.84;5116617;27;4136;-71
2022/05/14 08:30:22;;;;;;;;;;;;;;;22.09;48.30;101403.56;5113880;27;4539;-72
2022/05/14 08:32:48;;;;;;;;;;;;;;;22.10;48.31;101410.81;5117168;27;4514;-72
2022/05/14 08:35:14;;;;;;;;;;;;;;;22.10;48.55;101405.03;5113464;27;5312;-71
2022/05/14 08:38:02;;;;;;;;;;;;;;;22.10;48.75;101393.50;5119719;27;4109;-67
2022/05/14 08:40:39;;;;;;;;;;;;;;;22.11;48.57;101400.78;5115366;27;4219;-60
2022/05/14 08:43:08;;;;;;;;;;;;;;;22.13;48.78;101403.75;5116301;27;4099;-73
2022/05/14 08:45:36;;;;;;;;;;;;;;;22.14;48.57;101405.25;5098873;27;4187;-72
2022/05/14 08:48:07;;;;;;;;;;;;;;;22.14;48.80;101396.59;5121080;27;4127;-73
2022/05/14 08:50:36;;;;;;;;;;;;;;;22.13;48.75;101389.34;5104698;27;4023;-73
2022/05/14 08:53:03;;;;;;;;;;;;;;;22.14;48.84;101387.94;5107343;27;6131;-73
2022/05/14 08:55:50;;;;;;;;;;;;;;;22.14;48.73;101387.19;5107094;27;4152;-73
2022/05/14 08:58:29;;;;;;;;;;;;;;;22.14;48.71;101392.97;5117055;27;4269;-71
2022/05/14 09:00:59;;;;;;;;;;;;;;;22.14;48.60;101384.31;5116841;27;4339;-72
2022/05/14 09:03:25;;;;;;;;;;;;;;;22.14;48.78;101387.94;5120395;27;4058;-72
2022/05/14 09:05:53;;;;;;;;;;;;;;;22.14;48.73;101381.44;5118247;27;4359;-72
2022/05/14 09:08:19;;;;;;;;;;;;;;;22.13;48.71;101383.56;5120270;27;5774;-73
2022/05/14 09:10:54;;;;;;;;;;;;;;;22.13;48.74;101392.22;5119549;27;4158;-72
2022/05/14 09:13:21;;;;;;;;;;;;;;;22.13;48.67;101386.47;5108102;27;5110;-73
2022/05/14 09:15:52;;;;;;;;;;;;;;;22.13;48.52;101386.47;5118675;27;4185;-73
2022/05/14 09:18:39;;;;;;;;;;;;;;;22.14;48.54;101384.31;5115483;27;4198;-72
2022/05/14 09:21:06;;;;;;;;;;;;;;;22.15;48.53;101392.31;5109926;27;4569;-72
2022/05/14 09:23:36;;;;;;;;;;;;;;;22.14;48.50;101385.06;5108653;27;4138;-72
2022/05/14 09:26:08;;;;;;;;;;;;;;;22.14;48.54;101382.16;5118014;27;5507;-72
2022/05/14 09:28:41;;;;;;;;;;;;;;;22.14;48.53;101387.94;5118928;27;5154;-72
2022/05/14 09:31:07;;;;;;;;;;;;;;;22.15;48.49;101395.22;5120180;27;5495;-72
2022/05/14 09:33:35;;;;;;;;;;;;;;;22.15;48.79;101394.44;5118132;27;4171;-72
2022/05/14 09:36:24;;;;;;;;;;;;;;;22.14;48.73;101393.69;5120827;27;4043;-72
2022/05/14 09:38:59;;;;;;;;;;;;;;;22.14;48.59;101399.47;5117556;27;4063;-72
2022/05/14 09:41:25;;;;;;;;;;;;;;;22.15;48.50;101395.22;5118950;27;5542;-72
2022/05/14 09:43:52;;;;;;;;;;;;;;;22.15;48.55;101400.97;5119975;27;4296;-72
2022/05/14 09:46:25;;;;;;;;;;;;;;;22.16;48.59;101385.16;5117426;27;4043;-72
2022/05/14 09:48:52;;;;;;;;;;;;;;;22.16;48.59;101396.69;5115792;27;4222;-72
2022/05/14 09:51:29;;;;;;;;;;;;;;;22.17;48.78;101386.66;5117791;27;4129;-72
2022/05/14 09:53:55;;;;;;;;;;;;;;;22.17;48.65;101392.44;5119399;27;5286;-72
2022/05/14 09:56:38;;;;;;;;;;;;;;;22.17;48.88;101386.66;5107861;27;4233;-72
2022/05/14 09:59:18;;;;;;;;;;;;;;;22.18;48.55;101393.91;5118016;27;4219;-72
2022/05/14 10:01:46;;;;;;;;;;;;;;;22.17;48.84;101395.31;5117802;27;4241;-72
2022/05/14 10:04:30;;;;;;;;;;;;;;;22.17;48.55;101392.44;5101643;27;5016;-71
2022/05/14 10:07:01;;;;;;;;;;;;;;;22.18;48.53;101390.28;5105001;27;4241;-73
2022/05/14 10:09:28;;;;;;;;;;;;;;;22.16;48.48;101385.16;5114662;27;4279;-72
2022/05/14 10:11:56;;;;;;;;;;;;;;;22.16;48.72;101393.81;5119482;27;4032;-72
2022/05/14 10:14:29;;;;;;;;;;;;;;;22.18;48.61;101385.25;5118312;27;5500;-72
2022/05/14 10:17:02;;;;;;;;;;;;;;;22.19;48.46;101400.41;5116703;27;4243;-72
2022/05/14 10:19:47;;;;;;;;;;;;;;;22.19;48.44;101385.97;5102089;27;4236;-73
2022/05/14 10:22:27;;;;;;;;;;;;;;;22.18;48.51;101405.44;5119127;27;4241;-71
2022/05/14 10:28:03;;;;;;;;;;;;;;;22.17;48.66;101395.31;5100647;27;4264;-72
2022/05/14 10:30:33;;;;;;;;;;;;;;;22.20;48.30;101392.53;5097879;27;4246;-69
2022/05/14 10:33:12;;;;;;;;;;;;;;;22.19;48.22;101394.63;5098699;27;4067;-70
2022/05/14 10:35:47;;;;;;;;;;;;;;;22.20;48.19;101383.88;5093527;27;4039;-71
2022/05/14 10:38:14;;;;;;;;;;;;;;;22.19;48.41;101388.88;5103409;27;4172;-68
2022/05/14 10:40:42;;;;;;;;;;;;;;;22.20;48.34;101383.88;5110426;27;4233;-61
2022/05/14 10:43:26;;;;;;;;;;;;;;;22.21;48.29;101391.13;5097185;27;5151;-69
2022/05/14 10:45:54;;;;;;;;;;;;;;;22.17;46.96;101388.78;5089348;27;4955;-70
2022/05/14 10:48:30;;;;;;;;;;;;;;;22.19;46.95;101388.88;5106842;27;4326;-69
2022/05/14 10:50:56;;;;;;;;;;;;;;;22.14;46.36;101390.09;5110108;27;4057;-70
2022/05/14 10:53:23;;;;;;;;;;;;;;;22.13;46.89;101380.69;5117293;27;4474;-61
2022/05/14 10:55:53;;;;;;;;;;;;;;;22.12;47.31;101390.72;5116807;27;5100;-63
2022/05/14 10:58:20;;;;;;;;;;;;;;;22.12;47.27;101379.19;5090343;27;6191;-63
2022/05/14 11:00:48;;;;;;;;;;;;;;;22.12;47.49;101392.88;5089583;27;4240;-63
2022/05/14 11:03:24;;;;;;;;;;;;;;;22.10;47.17;101376.19;5114078;27;4150;-63
2022/05/14 11:05:52;;;;;;;;;;;;;;;22.09;46.43;101386.25;5111406;27;4223;-63
2022/05/14 11:08:31;;;;;;;;;;;;;;;22.08;45.35;101390.56;5117023;27;4800;-63
2022/05/14 11:11:06;;;;;;;;;;;;;;;22.08;44.99;101373.25;5111894;27;4273;-63
2022/05/14 11:13:32;;;;;;;;;;;;;;;22.07;45.00;101386.16;5091863;27;4796;-63
2022/05/14 11:16:10;;;;;;;;;;;;;;;22.06;44.50;101375.25;5092224;27;4277;-62
2022/05/14 11:19:04;;;;;;;;;;;;;;;22.04;44.14;101375.19;5110271;27;5984;-62
2022/05/14 11:21:35;;;;;;;;;;;;;;;22.07;43.95;101371.75;5103822;27;4227;-62
2022/05/14 11:24:01;;;;;;;;;;;;;;;22.05;44.21;101368.75;5106460;27;4262;-63
2022/05/14 11:26:28;;;;;;;;;;;;;;;22.03;44.08;101380.19;5114429;27;4744;-63
2022/05/14 11:28:57;;;;;;;;;;;;;;;22.02;43.89;101387.38;5113548;27;4250;-64
2022/05/14 11:31:24;;;;;;;;;;;;;;;22.02;44.05;101381.59;5105754;27;5428;-64
2022/05/14 11:33:51;;;;;;;;;;;;;;;22.03;43.91;101388.84;5099989;27;4223;-64
2022/05/14 11:36:24;;;;;;;;;;;;;;;22.02;44.09;101384.47;5088390;27;4269;-64
2022/05/14 11:39:07;;;;;;;;;;;;;;;22.03;44.01;101380.19;5110858;27;5298;-65
2022/05/14 11:41:35;;;;;;;;;;;;;;;22.02;44.12;101381.59;5102686;27;4270;-66
2022/05/14 11:44:04;;;;;;;;;;;;;;;22.03;44.39;101388.09;5109154;27;4138;-64
2022/05/14 11:46:32;;;;;;;;;;;;;;;22.04;44.18;101378.06;5113313;27;4090;-64
2022/05/14 11:49:04;;;;;;;;;;;;;;;22.03;43.57;101388.84;5102437;27;4080;-62
2022/05/14 11:51:35;;;;;;;;;;;;;;;22.02;43.85;101387.38;5097195;27;4307;-63
2022/05/14 11:54:06;;;;;;;;;;;;;;;22.02;43.64;101387.38;5113858;27;4050;-63
2022/05/14 11:56:47;;;;;;;;;;;;;;;22.02;43.59;101380.84;5117222;27;5335;-63
2022/05/14 11:59:18;;;;;;;;;;;;;;;22.00;43.58;101381.50;5096534;27;4225;-62
2022/05/14 12:01:45;;;;;;;;;;;;;;;22.00;43.98;101381.50;5098451;27;4068;-63
2022/05/14 12:04:16;;;;;;;;;;;;;;;21.99;43.30;101388.66;5101101;27;4140;-60
2022/05/14 12:06:52;;;;;;;;;;;;;;;21.99;44.16;101382.91;5114377;27;4163;-64
2022/05/14 12:09:29;;;;;;;;;;;;;;;22.01;44.35;101391.63;5096120;27;4200;-63
2022/05/14 12:12:07;;;;;;;;;;;;;;;22.00;44.39;101384.38;5098770;27;4072;-64
2022/05/14 12:14:35;;;;;;;;;;;;;;;22.02;44.29;101393.13;5095237;28;4175;-63
2022/05/14 12:17:02;;;;;;;;;;;;;;;22.03;44.30;101400.38;5114511;27;5278;-63
2022/05/14 12:19:30;;;;;;;;;;;;;;;22.02;44.44;101389.50;5113286;27;4552;-63
2022/05/14 12:21:57;;;;;;;;;;;;;;;22.03;44.82;101397.50;5098674;28;4015;-64
2022/05/14 12:24:24;;;;;;;;;;;;;;;22.03;44.85;101391.72;5112089;27;4194;-63
2022/05/14 12:26:51;;;;;;;;;;;;;;;22.04;44.93;101393.22;5108805;27;4232;-64
2022/05/14 12:29:24;;;;;;;;;;;;;;;22.02;45.01;101387.38;5113226;27;4193;-63
2022/05/14 12:34:52;;;;;;;;;;;;;;;22.03;45.15;101383.06;5113575;27;5168;-63
2022/05/14 12:37:23;;;;;;;;;;;;;;;22.03;45.19;101394.59;5113455;28;4127;-63
2022/05/14 12:39:50;;;;;;;;;;;;;;;22.03;45.39;101385.97;5114608;28;4020;-63
2022/05/14 12:42:18;;;;;;;;;;;;;;;22.05;45.23;101399.75;5092111;28;5607;-64
2022/05/14 12:44:51;;;;;;;;;;;;;;;22.05;45.12;101394.72;5096551;28;4565;-63
2022/05/14 12:47:25;;;;;;;;;;;;;;;22.04;45.27;101390.34;5115196;27;4298;-62
2022/05/14 12:49:51;;;;;;;;;;;;;;;22.05;45.33;101385.31;5117008;28;4075;-62
2022/05/14 12:52:19;;;;;;;;;;;;;;;22.05;45.25;101391.81;5110328;28;4109;-62
2022/05/14 12:54:48;;;;;;;;;;;;;;;22.06;45.44;101387.56;5105782;27;4177;-62
2022/05/14 12:57:14;;;;;;;;;;;;;;;22.06;45.36;101393.34;5115492;27;4158;-62
2022/05/14 12:59:41;;;;;;;;;;;;;;;22.06;45.46;101389.69;5112155;27;4059;-63
2022/05/14 13:02:11;;;;;;;;;;;;;;;22.07;45.61;101406.34;5114802;28;4580;-62
2022/05/14 13:04:42;;;;;;;;;;;;;;;22.06;45.41;101393.34;5112537;27;4174;-62
2022/05/14 13:07:09;;;;;;;;;;;;;;;22.07;45.72;101388.31;5105361;27;4917;-62
2022/05/14 13:09:35;;;;;;;;;;;;;;;22.08;45.33;101399.19;5113828;27;5370;-62
2022/05/14 13:12:02;;;;;;;;;;;;;;;22.08;45.42;101396.31;5113128;27;4135;-62
2022/05/14 13:14:29;;;;;;;;;;;;;;;22.07;45.54;101394.81;5062826;28;4012;-62
2022/05/14 13:16:59;;;;;;;;;;;;;;;22.07;45.37;101394.81;5110944;27;4151;-62